createdAt,value
2023-06-15T00:00:25.447Z,210.11
2023-06-15T00:01:25.458Z,211.90
2023-06-15T00:02:25.517Z,210.23
2023-06-15T00:03:25.648Z,209.67
2023-06-15T00:04:25.521Z,210.02
2023-06-15T00:05:25.519Z,210.35
2023-06-15T00:06:25.528Z,209.94
2023-06-15T00:07:25.535Z,212.17
2023-06-15T00:08:25.554Z,210.58
2023-06-15T00:09:25.573Z,209.13
2023-06-15T00:10:25.594Z,208.40
2023-06-15T00:11:25.618Z,209.94
2023-06-15T00:12:25.631Z,210.55
2023-06-15T00:13:25.652Z,210.79
2023-06-15T00:14:25.682Z,209.01
2023-06-15T00:15:25.670Z,208.42
2023-06-15T00:16:25.854Z,210.32
2023-06-15T00:17:25.765Z,209.35
2023-06-15T00:18:25.746Z,208.82
2023-06-15T00:19:25.741Z,209.86
2023-06-15T00:20:25.756Z,208.05
2023-06-15T00:21:25.769Z,208.51
2023-06-15T00:22:25.777Z,210.93
2023-06-15T00:23:25.792Z,208.58
2023-06-15T00:24:25.824Z,210.32
2023-06-15T00:25:25.812Z,207.08
2023-06-15T00:26:25.827Z,207.92
2023-06-15T00:27:25.845Z,206.79
2023-06-15T00:28:25.853Z,207.76
2023-06-15T00:29:25.884Z,209.09
2023-06-15T00:30:25.882Z,207.50
2023-06-15T00:31:25.892Z,207.10
2023-06-15T00:32:25.950Z,208.49
2023-06-15T00:33:25.975Z,207.30
2023-06-15T00:34:25.933Z,208.10
2023-06-15T00:35:25.947Z,208.32
2023-06-15T00:36:25.952Z,208.65
2023-06-15T00:37:25.973Z,207.26
2023-06-15T00:38:26.060Z,206.37
2023-06-15T00:39:26.004Z,207.63
2023-06-15T00:40:26.021Z,205.85
2023-06-15T00:41:26.021Z,207.97
2023-06-15T00:42:26.039Z,207.72
2023-06-15T00:43:26.057Z,206.17
2023-06-15T00:44:26.069Z,206.27
2023-06-15T00:45:26.088Z,206.53
2023-06-15T00:46:26.124Z,206.53
2023-06-15T00:47:26.138Z,205.26
2023-06-15T00:48:26.122Z,207.34
2023-06-15T00:49:26.129Z,205.50
2023-06-15T00:50:26.167Z,208.36
2023-06-15T00:51:26.161Z,206.49
2023-06-15T00:52:26.186Z,204.42
2023-06-15T00:53:26.186Z,205.99
2023-06-15T00:54:26.212Z,204.75
2023-06-15T00:55:26.214Z,205.63
2023-06-15T00:56:26.227Z,208.07
2023-06-15T00:57:26.243Z,203.39
2023-06-15T00:58:26.262Z,204.29
2023-06-15T00:59:26.268Z,205.35
2023-06-15T01:00:26.280Z,205.97
2023-06-15T01:01:26.364Z,204.30
2023-06-15T01:02:26.302Z,206.29
2023-06-15T01:03:26.358Z,205.08
2023-06-15T01:04:26.342Z,204.39
2023-06-15T01:05:26.344Z,204.42
2023-06-15T01:06:26.359Z,205.92
2023-06-15T01:07:26.373Z,202.62
2023-06-15T01:08:26.403Z,205.44
2023-06-15T01:09:26.429Z,205.21
2023-06-15T01:10:26.424Z,205.90
2023-06-15T01:11:28.026Z,202.89
2023-06-15T01:12:26.394Z,203.90
2023-06-15T01:13:26.375Z,203.16
2023-06-15T01:14:26.372Z,204.29
2023-06-15T01:15:26.360Z,201.48
2023-06-15T01:16:26.347Z,203.42
2023-06-15T01:17:26.300Z,203.80
2023-06-15T01:18:26.263Z,203.50
2023-06-15T01:19:26.214Z,202.57
2023-06-15T01:20:26.192Z,204.74
2023-06-15T01:21:26.194Z,204.76
2023-06-15T01:22:26.179Z,204.88
2023-06-15T01:23:26.173Z,203.58
2023-06-15T01:24:26.143Z,202.07
2023-06-15T01:25:26.076Z,201.81
2023-06-15T01:26:26.025Z,204.27
2023-06-15T01:27:26.002Z,202.90
2023-06-15T01:28:25.996Z,200.42
2023-06-15T01:29:25.959Z,201.43
2023-06-15T01:30:25.929Z,204.26
2023-06-15T01:31:26.005Z,201.96
2023-06-15T01:32:25.904Z,200.27
2023-06-15T01:33:25.861Z,200.19
2023-06-15T01:34:25.866Z,202.32
2023-06-15T01:35:25.809Z,201.48
2023-06-15T01:36:25.779Z,201.81
2023-06-15T01:37:25.764Z,201.68
2023-06-15T01:38:25.725Z,200.49
2023-06-15T01:39:25.695Z,200.96
2023-06-15T01:40:25.672Z,200.33
2023-06-15T01:41:25.741Z,201.23
2023-06-15T01:42:25.624Z,200.50
2023-06-15T01:43:25.627Z,200.09
2023-06-15T01:44:25.575Z,202.30
2023-06-15T01:45:25.554Z,200.19
2023-06-15T01:46:25.546Z,201.57
2023-06-15T01:47:25.537Z,200.84
2023-06-15T01:48:25.469Z,200.60
2023-06-15T01:49:25.446Z,198.27
2023-06-15T01:50:25.415Z,200.56
2023-06-15T01:51:25.385Z,199.83
2023-06-15T01:52:25.360Z,200.90
2023-06-15T01:53:25.340Z,197.97
2023-06-15T01:54:25.306Z,200.84
2023-06-15T01:55:25.305Z,199.45
2023-06-15T01:56:25.270Z,198.95
2023-06-15T01:57:31.946Z,202.61
2023-06-15T01:58:26.227Z,202.62
2023-06-15T01:59:25.188Z,200.28
2023-06-15T02:00:25.177Z,199.64
2023-06-15T02:01:25.175Z,198.34
2023-06-15T02:02:25.142Z,200.10
2023-06-15T02:03:25.085Z,199.47
2023-06-15T02:04:25.059Z,199.74
2023-06-15T02:05:25.034Z,199.15
2023-06-15T02:06:24.997Z,198.30
2023-06-15T02:07:24.981Z,198.21
2023-06-15T02:08:24.957Z,198.08
2023-06-15T02:09:24.927Z,198.17
2023-06-15T02:10:24.907Z,197.72
2023-06-15T02:11:24.884Z,196.03
2023-06-15T02:12:24.873Z,197.29
2023-06-15T02:13:24.876Z,199.51
2023-06-15T02:14:24.892Z,196.32
2023-06-15T02:15:24.909Z,197.36
2023-06-15T02:16:24.926Z,195.91
2023-06-15T02:17:24.950Z,197.46
2023-06-15T02:18:24.981Z,198.05
2023-06-15T02:19:25.041Z,196.19
2023-06-15T02:20:25.018Z,198.88
2023-06-15T02:21:25.021Z,196.09
2023-06-15T02:22:25.044Z,196.90
2023-06-15T02:23:25.055Z,195.46
2023-06-15T02:24:25.171Z,197.00
2023-06-15T02:25:25.146Z,196.10
2023-06-15T02:26:25.111Z,194.89
2023-06-15T02:27:25.128Z,194.44
2023-06-15T02:28:25.144Z,196.06
2023-06-15T02:29:25.151Z,196.42
2023-06-15T02:30:25.187Z,197.02
2023-06-15T02:31:25.199Z,196.87
2023-06-15T02:32:25.238Z,195.44
2023-06-15T02:33:25.233Z,195.91
2023-06-15T02:34:25.303Z,194.72
2023-06-15T02:35:25.266Z,194.97
2023-06-15T02:36:25.289Z,195.79
2023-06-15T02:37:25.301Z,194.77
2023-06-15T02:38:25.327Z,195.57
2023-06-15T02:39:25.340Z,196.60
2023-06-15T02:40:25.355Z,195.34
2023-06-15T02:41:25.368Z,193.55
2023-06-15T02:42:25.393Z,193.98
2023-06-15T02:43:25.419Z,192.91
2023-06-15T02:44:25.445Z,193.19
2023-06-15T02:45:25.450Z,196.34
2023-06-15T02:46:25.474Z,193.82
2023-06-15T02:47:25.538Z,193.57
2023-06-15T02:48:25.514Z,196.36
2023-06-15T02:49:25.536Z,194.73
2023-06-15T02:50:25.597Z,194.72
2023-06-15T02:51:25.566Z,194.54
2023-06-15T02:52:25.593Z,194.59
2023-06-15T02:53:25.643Z,196.11
2023-06-15T02:54:25.637Z,194.07
2023-06-15T02:55:25.660Z,193.93
2023-06-15T02:56:25.676Z,194.22
2023-06-15T02:57:25.703Z,192.27
2023-06-15T02:58:25.741Z,192.49
2023-06-15T02:59:25.755Z,194.34
2023-06-15T03:00:25.762Z,192.00
2023-06-15T03:01:25.790Z,195.08
2023-06-15T03:02:25.810Z,193.59
2023-06-15T03:03:25.805Z,194.69
2023-06-15T03:04:25.826Z,190.69
2023-06-15T03:05:25.843Z,191.73
2023-06-15T03:06:25.906Z,193.43
2023-06-15T03:07:25.879Z,193.18
2023-06-15T03:08:25.899Z,192.08
2023-06-15T03:09:25.925Z,192.15
2023-06-15T03:10:25.937Z,193.98
2023-06-15T03:11:25.979Z,191.26
2023-06-15T03:12:25.972Z,193.16
2023-06-15T03:13:25.987Z,191.86
2023-06-15T03:14:26.010Z,191.97
2023-06-15T03:15:26.030Z,192.06
2023-06-15T03:16:26.111Z,194.02
2023-06-15T03:17:26.183Z,190.97
2023-06-15T03:18:26.093Z,191.46
2023-06-15T03:19:26.119Z,191.10
2023-06-15T03:20:26.242Z,193.29
2023-06-15T03:21:26.184Z,194.18
2023-06-15T03:22:26.167Z,190.03
2023-06-15T03:23:26.199Z,190.26
2023-06-15T03:24:26.323Z,189.67
2023-06-15T03:25:26.232Z,190.99
2023-06-15T03:26:26.241Z,193.26
2023-06-15T03:27:26.267Z,189.99
2023-06-15T03:28:26.285Z,189.27
2023-06-15T03:29:26.298Z,189.61
2023-06-15T03:30:26.313Z,192.48
2023-06-15T03:31:26.335Z,193.10
2023-06-15T03:32:26.404Z,191.50
2023-06-15T03:33:26.388Z,192.36
2023-06-15T03:34:26.401Z,191.90
2023-06-15T03:35:26.416Z,191.04
2023-06-15T03:36:26.435Z,191.82
2023-06-15T03:37:26.451Z,189.38
2023-06-15T03:38:26.471Z,189.85
2023-06-15T03:39:26.515Z,189.45
2023-06-15T03:40:26.520Z,190.29
2023-06-15T03:41:26.546Z,191.17
2023-06-15T03:42:26.560Z,188.61
2023-06-15T03:43:26.580Z,189.50
2023-06-15T03:44:26.640Z,190.15
2023-06-15T03:45:26.617Z,192.30
2023-06-15T03:46:26.657Z,191.67
2023-06-15T03:47:26.691Z,191.18
2023-06-15T03:48:26.685Z,189.18
2023-06-15T03:49:26.710Z,190.29
2023-06-15T03:50:26.738Z,189.53
2023-06-15T03:51:26.760Z,190.06
2023-06-15T03:52:26.788Z,187.40
2023-06-15T03:53:26.794Z,190.31
2023-06-15T03:54:26.866Z,190.53
2023-06-15T03:55:26.846Z,188.85
2023-06-15T03:56:26.891Z,188.31
2023-06-15T03:57:26.893Z,188.14
2023-06-15T03:58:26.909Z,188.32
2023-06-15T03:59:26.930Z,190.02
2023-06-15T04:00:26.954Z,187.63
2023-06-15T04:01:27.000Z,187.48
2023-06-15T04:02:27.063Z,187.51
2023-06-15T04:03:27.080Z,187.77
2023-06-15T04:04:27.080Z,189.23
2023-06-15T04:05:27.081Z,190.33
2023-06-15T04:06:27.082Z,187.13
2023-06-15T04:07:27.109Z,186.97
2023-06-15T04:08:27.134Z,185.19
2023-06-15T04:09:27.193Z,188.55
2023-06-15T04:10:27.254Z,186.36
2023-06-15T04:11:27.225Z,189.24
2023-06-15T04:12:27.227Z,189.21
2023-06-15T04:13:27.280Z,189.12
2023-06-15T04:14:27.293Z,187.49
2023-06-15T04:15:27.300Z,186.06
2023-06-15T04:16:27.311Z,189.66
2023-06-15T04:17:27.372Z,185.25
2023-06-15T04:18:27.459Z,188.10
2023-06-15T04:19:27.395Z,186.12
2023-06-15T04:20:27.404Z,188.47
2023-06-15T04:21:27.439Z,188.70
2023-06-15T04:22:27.448Z,186.28
2023-06-15T04:23:27.483Z,187.04
2023-06-15T04:24:27.552Z,185.53
2023-06-15T04:25:27.533Z,187.95
2023-06-15T04:26:27.579Z,186.12
2023-06-15T04:27:27.586Z,187.24
2023-06-15T04:28:27.635Z,188.29
2023-06-15T04:29:27.642Z,187.42
2023-06-15T04:30:27.660Z,185.23
2023-06-15T04:31:27.684Z,186.98
2023-06-15T04:32:27.712Z,185.35
2023-06-15T04:33:27.718Z,185.48
2023-06-15T04:34:27.768Z,188.73
2023-06-15T04:35:27.781Z,186.08
2023-06-15T04:36:27.801Z,186.61
2023-06-15T04:37:27.833Z,186.37
2023-06-15T04:38:27.862Z,186.59
2023-06-15T04:39:27.887Z,187.66
2023-06-15T04:40:27.935Z,186.98
2023-06-15T04:41:27.947Z,186.80
2023-06-15T04:42:27.981Z,185.68
2023-06-15T04:43:28.006Z,185.23
2023-06-15T04:44:28.016Z,186.05
2023-06-15T04:45:28.066Z,186.21
2023-06-15T04:46:28.072Z,185.44
2023-06-15T04:47:28.130Z,187.84
2023-06-15T04:48:28.146Z,187.95
2023-06-15T04:49:28.168Z,186.16
2023-06-15T04:50:28.197Z,186.91
2023-06-15T04:51:28.228Z,185.29
2023-06-15T04:52:28.254Z,183.84
2023-06-15T04:53:28.278Z,187.30
2023-06-15T04:54:28.306Z,185.13
2023-06-15T04:55:28.314Z,184.70
2023-06-15T04:56:28.343Z,186.77
2023-06-15T04:57:28.380Z,184.74
2023-06-15T04:58:28.412Z,186.89
2023-06-15T04:59:28.447Z,189.12
2023-06-15T05:00:28.468Z,185.37
2023-06-15T05:01:28.502Z,190.34
2023-06-15T05:02:28.599Z,193.94
2023-06-15T05:03:28.595Z,204.21
2023-06-15T05:04:28.586Z,210.63
2023-06-15T05:05:28.619Z,215.78
2023-06-15T05:06:28.647Z,217.93
2023-06-15T05:07:28.664Z,221.14
2023-06-15T05:08:28.713Z,224.10
2023-06-15T05:09:28.760Z,229.13
2023-06-15T05:10:44.772Z,231.02
2023-06-15T05:11:29.758Z,231.23
2023-06-15T05:12:28.740Z,231.68
2023-06-15T05:13:28.734Z,233.61
2023-06-15T05:14:28.712Z,236.41
2023-06-15T05:15:28.695Z,244.04
2023-06-15T05:16:28.693Z,244.88
2023-06-15T05:17:28.725Z,245.65
2023-06-15T05:18:28.676Z,246.92
2023-06-15T05:19:28.655Z,247.95
2023-06-15T05:20:28.633Z,246.23
2023-06-15T05:21:28.620Z,250.04
2023-06-15T05:22:28.613Z,245.09
2023-06-15T05:23:28.680Z,246.07
2023-06-15T05:24:28.768Z,246.17
2023-06-15T05:25:28.777Z,240.46
2023-06-15T05:26:30.633Z,226.11
2023-06-15T05:27:28.758Z,205.80
2023-06-15T05:28:28.790Z,187.15
2023-06-15T05:29:28.797Z,160.11
2023-06-15T05:30:28.904Z,131.26
2023-06-15T05:31:28.886Z,111.79
2023-06-15T05:32:28.863Z,89.78
2023-06-15T05:33:28.880Z,65.65
2023-06-15T05:34:28.871Z,37.82
2023-06-15T05:35:28.889Z,25.00
2023-06-15T05:36:34.520Z,23.63
2023-06-15T05:37:29.899Z,11.04
2023-06-15T05:38:28.910Z,0.00
2023-06-15T05:39:28.936Z,0.00
2023-06-15T05:40:28.935Z,0.00
2023-06-15T05:41:28.938Z,0.00
2023-06-15T05:42:28.967Z,0.00
2023-06-15T05:43:28.955Z,0.00
2023-06-15T05:44:28.978Z,9.02
2023-06-15T05:45:29.018Z,24.73
2023-06-15T05:46:28.982Z,27.42
2023-06-15T05:47:29.065Z,30.97
2023-06-15T05:48:28.987Z,36.68
2023-06-15T05:49:28.991Z,42.79
2023-06-15T05:50:29.001Z,49.89
2023-06-15T05:51:28.980Z,65.76
2023-06-15T05:52:30.252Z,77.71
2023-06-15T05:53:28.954Z,85.04
2023-06-15T05:54:28.954Z,88.32
2023-06-15T05:55:28.933Z,101.24
2023-06-15T05:56:28.936Z,112.50
2023-06-15T05:57:28.981Z,114.03
2023-06-15T05:58:29.021Z,123.99
2023-06-15T05:59:34.210Z,130.93
2023-06-15T06:00:30.041Z,131.16
2023-06-15T06:01:29.030Z,131.85
2023-06-15T06:02:29.038Z,135.27
2023-06-15T06:03:28.995Z,141.85
2023-06-15T06:04:28.986Z,152.62
2023-06-15T06:05:28.968Z,156.21
2023-06-15T06:06:28.990Z,158.79
2023-06-15T06:07:28.931Z,158.24
2023-06-15T06:08:28.921Z,158.82
2023-06-15T06:09:28.915Z,160.01
2023-06-15T06:10:28.942Z,161.35
2023-06-15T06:11:28.897Z,160.81
2023-06-15T06:12:28.945Z,160.38
2023-06-15T06:13:28.988Z,163.13
2023-06-15T06:14:29.039Z,162.82
2023-06-15T06:15:29.054Z,164.04
2023-06-15T06:16:29.075Z,165.68
2023-06-15T06:17:45.990Z,165.02
2023-06-15T06:18:30.146Z,165.13
2023-06-15T06:19:29.064Z,165.43
2023-06-15T06:20:29.044Z,167.78
2023-06-15T06:21:29.017Z,170.86
2023-06-15T06:22:29.004Z,177.80
2023-06-15T06:23:28.999Z,180.33
2023-06-15T06:24:29.043Z,184.79
2023-06-15T06:25:28.999Z,188.71
2023-06-15T06:26:28.980Z,191.15
2023-06-15T06:27:28.948Z,188.45
2023-06-15T06:28:28.951Z,185.96
2023-06-15T06:29:28.957Z,191.75
2023-06-15T06:30:28.989Z,194.89
2023-06-15T06:31:29.027Z,198.84
2023-06-15T06:32:29.102Z,201.66
2023-06-15T06:33:29.073Z,203.72
2023-06-15T06:34:29.113Z,206.51
2023-06-15T06:35:29.136Z,208.66
2023-06-15T06:36:29.860Z,209.64
2023-06-15T06:37:29.178Z,211.64
2023-06-15T06:38:29.201Z,211.36
2023-06-15T06:39:29.234Z,215.71
2023-06-15T06:40:29.277Z,214.58
2023-06-15T06:41:29.289Z,216.74
2023-06-15T06:42:29.322Z,216.00
2023-06-15T06:43:29.360Z,215.75
2023-06-15T06:44:29.389Z,219.05
2023-06-15T06:45:30.559Z,217.81
2023-06-15T06:46:29.438Z,220.29
2023-06-15T06:47:29.522Z,220.11
2023-06-15T06:48:29.496Z,220.29
2023-06-15T06:49:29.529Z,220.71
2023-06-15T06:50:29.566Z,223.65
2023-06-15T06:51:29.646Z,222.81
2023-06-15T06:52:29.609Z,224.09
2023-06-15T06:53:29.712Z,225.35
2023-06-15T06:54:29.668Z,224.47
2023-06-15T06:55:29.687Z,223.77
2023-06-15T06:56:29.734Z,226.87
2023-06-15T06:57:29.755Z,227.89
2023-06-15T06:58:29.783Z,225.70
2023-06-15T06:59:42.455Z,228.68
2023-06-15T07:00:30.798Z,228.75
2023-06-15T07:01:29.780Z,228.75
2023-06-15T07:02:29.893Z,228.25
2023-06-15T07:03:29.807Z,229.49
2023-06-15T07:04:29.725Z,230.43
2023-06-15T07:05:29.701Z,227.57
2023-06-15T07:06:29.685Z,227.26
2023-06-15T07:07:29.667Z,226.82
2023-06-15T07:08:30.355Z,229.21
2023-06-15T07:09:29.598Z,227.54
2023-06-15T07:10:29.577Z,227.35
2023-06-15T07:11:29.550Z,227.41
2023-06-15T07:12:29.534Z,226.95
2023-06-15T07:13:29.512Z,223.54
2023-06-15T07:14:29.510Z,225.39
2023-06-15T07:15:29.485Z,222.88
2023-06-15T07:16:29.482Z,224.91
2023-06-15T07:17:29.494Z,225.57
2023-06-15T07:18:30.377Z,225.24
2023-06-15T07:19:29.445Z,227.23
2023-06-15T07:20:29.460Z,227.32
2023-06-15T07:21:29.475Z,229.22
2023-06-15T07:22:29.479Z,230.71
2023-06-15T07:23:38.156Z,231.59
2023-06-15T07:24:31.563Z,231.71
2023-06-15T07:25:29.486Z,232.33
2023-06-15T07:26:29.457Z,234.29
2023-06-15T07:27:29.446Z,237.79
2023-06-15T07:28:29.435Z,243.00
2023-06-15T07:29:29.396Z,243.16
2023-06-15T07:30:29.379Z,245.46
2023-06-15T07:31:29.883Z,246.73
2023-06-15T07:32:29.363Z,246.74
2023-06-15T07:33:29.318Z,246.15
2023-06-15T07:34:29.932Z,248.16
2023-06-15T07:35:29.267Z,248.18
2023-06-15T07:36:29.280Z,249.77
2023-06-15T07:37:29.366Z,249.27
2023-06-15T07:38:29.309Z,249.48
2023-06-15T07:39:29.333Z,248.47
2023-06-15T07:40:29.352Z,248.87
2023-06-15T07:41:29.374Z,247.45
2023-06-15T07:42:29.386Z,247.79
2023-06-15T07:43:29.416Z,248.25
2023-06-15T07:44:29.431Z,247.14
2023-06-15T07:45:29.441Z,246.66
2023-06-15T07:46:29.454Z,247.24
2023-06-15T07:47:29.532Z,245.59
2023-06-15T07:48:29.520Z,245.39
2023-06-15T07:49:44.268Z,242.78
2023-06-15T07:50:30.503Z,242.79
2023-06-15T07:51:41.344Z,234.79
2023-06-15T07:52:30.457Z,223.78
2023-06-15T07:53:29.445Z,221.43
2023-06-15T07:54:29.416Z,214.08
2023-06-15T07:55:29.973Z,197.81
2023-06-15T07:56:29.377Z,187.30
2023-06-15T07:57:29.358Z,180.54
2023-06-15T07:58:29.336Z,177.44
2023-06-15T07:59:29.318Z,174.89
2023-06-15T08:00:29.308Z,174.63
2023-06-15T08:01:29.283Z,178.87
2023-06-15T08:02:29.254Z,186.23
2023-06-15T08:03:29.266Z,189.03
2023-06-15T08:04:29.207Z,193.00
2023-06-15T08:05:29.201Z,193.97
2023-06-15T08:06:29.230Z,200.34
2023-06-15T08:07:29.246Z,202.85
2023-06-15T08:08:29.982Z,208.58
2023-06-15T08:09:29.304Z,214.62
2023-06-15T08:10:29.304Z,216.21
2023-06-15T08:11:29.386Z,221.43
2023-06-15T08:12:29.375Z,224.26
2023-06-15T08:13:29.426Z,226.70
2023-06-15T08:14:29.468Z,227.39
2023-06-15T08:15:29.491Z,225.87
2023-06-15T08:16:29.543Z,223.05
2023-06-15T08:17:29.601Z,211.03
2023-06-15T08:18:29.652Z,200.16
2023-06-15T08:19:29.685Z,202.60
2023-06-15T08:20:29.727Z,202.72
2023-06-15T08:21:29.782Z,199.74
2023-06-15T08:22:29.846Z,196.37
2023-06-15T08:23:29.891Z,198.02
2023-06-15T08:24:30.052Z,197.22
2023-06-15T08:25:29.989Z,194.02
2023-06-15T08:26:29.972Z,189.07
2023-06-15T08:27:30.003Z,189.16
2023-06-15T08:28:34.036Z,186.80
2023-06-15T08:29:30.001Z,186.84
2023-06-15T08:30:29.968Z,184.22
2023-06-15T08:31:29.951Z,181.62
2023-06-15T08:32:29.931Z,185.12
2023-06-15T08:33:29.884Z,180.49
2023-06-15T08:34:29.865Z,180.45
2023-06-15T08:35:29.828Z,184.14
2023-06-15T08:36:29.813Z,187.86
2023-06-15T08:37:29.843Z,191.95
2023-06-15T08:38:29.762Z,198.03
2023-06-15T08:39:29.736Z,200.40
2023-06-15T08:40:29.715Z,204.12
2023-06-15T08:41:29.692Z,205.69
2023-06-15T08:42:29.664Z,207.58
2023-06-15T08:43:29.787Z,206.62
2023-06-15T08:44:29.624Z,209.61
2023-06-15T08:45:29.596Z,210.25
2023-06-15T08:46:29.598Z,207.24
2023-06-15T08:47:29.613Z,203.88
2023-06-15T08:48:29.613Z,202.85
2023-06-15T08:49:29.622Z,198.17
2023-06-15T08:50:29.653Z,198.16
2023-06-15T08:51:30.512Z,212.67
2023-06-15T08:52:29.827Z,217.90
2023-06-15T08:53:29.744Z,220.44
2023-06-15T08:54:29.727Z,217.99
2023-06-15T08:55:29.751Z,220.73
2023-06-15T08:56:29.753Z,222.87
2023-06-15T08:57:29.763Z,226.18
2023-06-15T08:58:29.759Z,228.88
2023-06-15T08:59:30.049Z,228.46
2023-06-15T09:00:29.794Z,228.98
2023-06-15T09:01:29.790Z,229.75
2023-06-15T09:02:29.823Z,227.98
2023-06-15T09:03:29.959Z,228.34
2023-06-15T09:04:29.892Z,230.27
2023-06-15T09:05:29.849Z,228.44
2023-06-15T09:06:29.837Z,227.03
2023-06-15T09:07:29.837Z,226.63
2023-06-15T09:08:29.864Z,227.08
2023-06-15T09:09:29.876Z,228.31
2023-06-15T09:10:29.880Z,229.55
2023-06-15T09:11:31.531Z,231.31
2023-06-15T09:12:29.932Z,232.14
2023-06-15T09:13:29.828Z,233.72
2023-06-15T09:14:29.810Z,235.27
2023-06-15T09:15:29.903Z,234.44
2023-06-15T09:16:29.757Z,230.45
2023-06-15T09:17:29.812Z,230.05
2023-06-15T09:18:29.708Z,229.16
2023-06-15T09:19:29.661Z,228.66
2023-06-15T09:20:29.636Z,226.60
2023-06-15T09:21:29.612Z,227.63
2023-06-15T09:22:29.631Z,227.06
2023-06-15T09:23:29.584Z,230.92
2023-06-15T09:24:29.609Z,231.47
2023-06-15T09:25:29.536Z,234.64
2023-06-15T09:26:29.509Z,232.96
2023-06-15T09:27:29.501Z,232.81
2023-06-15T09:28:29.490Z,234.03
2023-06-15T09:29:29.497Z,236.15
2023-06-15T09:30:29.450Z,240.47
2023-06-15T09:31:29.527Z,240.08
2023-06-15T09:32:29.484Z,241.51
2023-06-15T09:33:29.373Z,243.17
2023-06-15T09:34:29.351Z,244.81
2023-06-15T09:35:29.332Z,245.69
2023-06-15T09:36:29.971Z,242.15
2023-06-15T09:37:30.042Z,243.48
2023-06-15T09:38:29.291Z,239.46
2023-06-15T09:39:30.977Z,236.78
2023-06-15T09:40:29.243Z,236.09
2023-06-15T09:41:29.220Z,235.28
2023-06-15T09:42:29.273Z,237.36
2023-06-15T09:43:29.172Z,237.68
2023-06-15T09:44:29.196Z,239.10
2023-06-15T09:45:29.142Z,240.32
2023-06-15T09:46:29.129Z,242.82
2023-06-15T09:47:29.154Z,242.67
2023-06-15T09:48:29.077Z,244.73
2023-06-15T09:49:29.054Z,244.10
2023-06-15T09:50:29.036Z,244.98
2023-06-15T09:51:31.726Z,244.56
2023-06-15T09:52:28.992Z,247.47
2023-06-15T09:53:28.986Z,245.38
2023-06-15T09:54:28.961Z,246.86
2023-06-15T09:55:28.933Z,245.18
2023-06-15T09:56:31.346Z,243.36
2023-06-15T09:57:29.136Z,242.41
2023-06-15T09:58:29.140Z,238.62
2023-06-15T09:59:29.164Z,238.15
2023-06-15T10:00:29.167Z,237.05
2023-06-15T10:01:29.174Z,242.47
2023-06-15T10:02:29.277Z,243.54
2023-06-15T10:03:30.092Z,243.94
2023-06-15T10:04:29.392Z,245.47
2023-06-15T10:05:29.228Z,249.57
2023-06-15T10:06:29.246Z,248.49
2023-06-15T10:07:29.252Z,249.14
2023-06-15T10:08:29.286Z,249.35
2023-06-15T10:09:29.301Z,246.79
2023-06-15T10:10:29.377Z,244.40
2023-06-15T10:11:29.430Z,241.98
2023-06-15T10:12:29.468Z,240.89
2023-06-15T10:13:29.511Z,240.57
2023-06-15T10:14:29.570Z,231.07
2023-06-15T10:15:32.235Z,231.16
2023-06-15T10:16:29.535Z,231.19
2023-06-15T10:17:29.527Z,229.65
2023-06-15T10:18:29.517Z,224.36
2023-06-15T10:19:29.486Z,225.63
2023-06-15T10:20:29.472Z,226.77
2023-06-15T10:21:29.438Z,227.12
2023-06-15T10:22:29.423Z,230.86
2023-06-15T10:23:40.938Z,231.22
2023-06-15T10:24:30.507Z,231.36
2023-06-15T10:25:29.360Z,232.10
2023-06-15T10:26:29.340Z,234.11
2023-06-15T10:27:30.016Z,237.90
2023-06-15T10:28:29.309Z,245.32
2023-06-15T10:29:29.268Z,247.55
2023-06-15T10:30:29.237Z,249.95
2023-06-15T10:31:29.205Z,248.49
2023-06-15T10:32:29.204Z,250.82
2023-06-15T10:33:29.156Z,248.93
2023-06-15T10:34:29.123Z,249.30
2023-06-15T10:35:29.111Z,246.97
2023-06-15T10:36:29.072Z,249.53
2023-06-15T10:37:29.042Z,248.61
2023-06-15T10:38:29.019Z,247.55
2023-06-15T10:39:28.996Z,247.03
2023-06-15T10:40:28.968Z,249.53
2023-06-15T10:41:28.947Z,246.68
2023-06-15T10:42:28.926Z,247.96
2023-06-15T10:43:28.944Z,248.56
2023-06-15T10:44:28.964Z,246.53
2023-06-15T10:45:29.000Z,245.22
2023-06-15T10:46:29.030Z,247.54
2023-06-15T10:47:29.087Z,248.47
2023-06-15T10:48:29.099Z,248.57
2023-06-15T10:49:29.078Z,247.72
2023-06-15T10:50:29.097Z,247.49
2023-06-15T10:51:29.121Z,247.89
2023-06-15T10:52:29.229Z,248.45
2023-06-15T10:53:29.174Z,246.40
2023-06-15T10:54:29.239Z,247.85
2023-06-15T10:55:29.236Z,246.82
2023-06-15T10:56:29.287Z,248.88
2023-06-15T10:57:29.313Z,249.64
2023-06-15T10:58:29.344Z,248.85
2023-06-15T10:59:29.388Z,246.74
2023-06-15T11:00:29.506Z,246.64
2023-06-15T11:01:29.461Z,237.15
2023-06-15T11:02:29.922Z,236.01
2023-06-15T11:03:29.553Z,232.50
2023-06-15T11:04:29.663Z,229.57
2023-06-15T11:05:29.658Z,230.29
2023-06-15T11:06:29.717Z,229.62
2023-06-15T11:07:29.776Z,233.61
2023-06-15T11:08:29.822Z,232.27
2023-06-15T11:09:29.867Z,235.40
2023-06-15T11:10:29.935Z,232.12
2023-06-15T11:11:29.969Z,234.58
2023-06-15T11:12:30.000Z,235.72
2023-06-15T11:13:30.060Z,237.22
2023-06-15T11:14:30.055Z,240.16
2023-06-15T11:15:30.058Z,242.18
2023-06-15T11:16:30.066Z,243.03
2023-06-15T11:17:30.141Z,244.22
2023-06-15T11:18:30.086Z,246.95
2023-06-15T11:19:30.112Z,237.15
2023-06-15T11:20:30.108Z,225.18
2023-06-15T11:21:30.169Z,220.49
2023-06-15T11:22:30.146Z,217.70
2023-06-15T11:23:30.202Z,214.82
2023-06-15T11:24:30.291Z,218.63
2023-06-15T11:25:30.149Z,223.76
2023-06-15T11:26:30.224Z,219.87
2023-06-15T11:27:30.157Z,220.49
2023-06-15T11:28:36.679Z,225.58
2023-06-15T11:29:31.117Z,225.83
2023-06-15T11:30:31.279Z,226.87
2023-06-15T11:31:30.669Z,220.82
2023-06-15T11:32:30.076Z,214.24
2023-06-15T11:33:30.025Z,216.96
2023-06-15T11:34:29.977Z,217.72
2023-06-15T11:35:29.952Z,218.58
2023-06-15T11:36:29.922Z,217.69
2023-06-15T11:37:29.897Z,211.01
2023-06-15T11:38:29.876Z,211.62
2023-06-15T11:39:29.837Z,211.55
2023-06-15T11:40:29.805Z,217.24
2023-06-15T11:41:29.783Z,221.98
2023-06-15T11:42:29.766Z,222.29
2023-06-15T11:43:29.737Z,212.22
2023-06-15T11:44:29.702Z,216.51
2023-06-15T11:45:29.679Z,210.27
2023-06-15T11:46:29.655Z,210.65
2023-06-15T11:47:29.684Z,212.05
2023-06-15T11:48:29.604Z,216.15
2023-06-15T11:49:29.584Z,220.46
2023-06-15T11:50:29.551Z,224.98
2023-06-15T11:51:29.523Z,228.64
2023-06-15T11:52:29.484Z,232.45
2023-06-15T11:53:29.460Z,235.80
2023-06-15T11:54:44.895Z,234.16
2023-06-15T11:55:30.394Z,234.17
2023-06-15T11:56:29.362Z,230.46
2023-06-15T11:57:29.329Z,219.90
2023-06-15T11:58:29.306Z,212.77
2023-06-15T11:59:29.271Z,206.20
2023-06-15T12:00:29.229Z,202.75
2023-06-15T12:01:31.295Z,198.54
2023-06-15T12:02:29.195Z,189.23
2023-06-15T12:03:29.176Z,188.80
2023-06-15T12:04:29.244Z,188.82
2023-06-15T12:05:29.111Z,191.02
2023-06-15T12:06:29.072Z,194.18
2023-06-15T12:07:38.100Z,200.16
2023-06-15T12:08:30.024Z,200.49
2023-06-15T12:09:28.991Z,201.65
2023-06-15T12:10:28.958Z,203.63
2023-06-15T12:11:29.042Z,211.12
2023-06-15T12:12:28.895Z,220.24
2023-06-15T12:13:28.867Z,224.39
2023-06-15T12:14:28.866Z,222.39
2023-06-15T12:15:28.809Z,222.64
2023-06-15T12:16:28.799Z,223.67
2023-06-15T12:17:28.760Z,220.07
2023-06-15T12:18:28.785Z,215.47
2023-06-15T12:19:28.685Z,190.25
2023-06-15T12:20:28.655Z,187.28
2023-06-15T12:21:28.627Z,184.09
2023-06-15T12:22:36.428Z,181.56
2023-06-15T12:23:29.552Z,181.09
2023-06-15T12:24:28.595Z,174.24
2023-06-15T12:25:28.526Z,171.35
2023-06-15T12:26:28.470Z,180.23
2023-06-15T12:27:28.500Z,194.13
2023-06-15T12:28:28.417Z,203.64
2023-06-15T12:29:29.142Z,188.45